createdAt,value
2018-12-22T00:02:09.662Z,-0.93
2018-12-22T00:04:43.075Z,-0.96
2018-12-22T00:07:17.046Z,-1.10
2018-12-22T00:09:53.571Z,-1.09
2018-12-22T00:12:30.356Z,-1.00
2018-12-22T00:15:08.546Z,-0.95
2018-12-22T00:17:41.622Z,-0.89
2018-12-22T00:20:15.256Z,-0.93
2018-12-22T00:22:48.819Z,-0.93
2018-12-22T00:25:25.071Z,-0.90
2018-12-22T00:27:57.255Z,-0.89
2018-12-22T00:30:33.508Z,-0.87
2018-12-22T00:33:06.467Z,-0.81
2018-12-22T00:35:42.711Z,-0.81
2018-12-22T00:38:16.430Z,-0.90
2018-12-22T00:40:49.620Z,-0.94
2018-12-22T00:43:26.805Z,-0.94
2018-12-22T00:46:03.063Z,-0.94
2018-12-22T00:48:39.714Z,-0.94
2018-12-22T00:51:16.151Z,-0.97
2018-12-22T00:53:48.409Z,-1.03
2018-12-22T00:56:25.184Z,-1.06
2018-12-22T00:59:02.210Z,-1.08
2018-12-22T01:01:38.979Z,-1.08
2018-12-22T01:04:17.743Z,-1.01
2018-12-22T01:06:55.285Z,-1.02
2018-12-22T01:09:29.032Z,-0.98
2018-12-22T01:12:01.274Z,-1.03
2018-12-22T01:14:38.386Z,-1.12
2018-12-22T01:17:15.771Z,-1.12
2018-12-22T01:19:52.652Z,-1.09
2018-12-22T01:22:25.435Z,-1.11
2018-12-22T01:25:04.084Z,-1.11
2018-12-22T01:27:41.172Z,-1.11
2018-12-22T01:30:18.358Z,-1.03
2018-12-22T01:32:52.659Z,-1.09
2018-12-22T01:35:26.198Z,-1.07
2018-12-22T01:38:03.050Z,-1.08
2018-12-22T01:40:40.132Z,-1.04
2018-12-22T01:43:14.233Z,-1.09
2018-12-22T01:45:47.048Z,-1.06
2018-12-22T01:48:19.671Z,-1.20
2018-12-22T01:50:52.633Z,-1.22
2018-12-22T01:53:25.758Z,-1.26
2018-12-22T01:56:01.857Z,-1.21
2018-12-22T01:58:34.704Z,-1.16
2018-12-22T02:01:07.756Z,-1.14
2018-12-22T02:03:44.968Z,-1.17
2018-12-22T02:06:23.697Z,-1.30
2018-12-22T02:08:56.253Z,-1.48
2018-12-22T02:11:30.258Z,-1.54
2018-12-22T02:14:02.584Z,-1.39
2018-12-22T02:16:35.518Z,-1.32
2018-12-22T02:19:12.073Z,-1.30
2018-12-22T02:21:50.208Z,-1.31
2018-12-22T02:24:23.482Z,-1.38
2018-12-22T02:26:56.226Z,-1.47
2018-12-22T02:29:33.222Z,-1.60
2018-12-22T02:32:06.764Z,-1.56
2018-12-22T02:34:39.139Z,-1.47
2018-12-22T02:37:16.428Z,-1.43
2018-12-22T02:39:49.292Z,-1.45
2018-12-22T02:42:22.682Z,-1.45
2018-12-22T02:44:55.549Z,-1.60
2018-12-22T02:47:28.628Z,-1.53
2018-12-22T02:50:00.007Z,-1.48
2018-12-22T02:52:32.830Z,-1.43
2018-12-22T02:55:06.590Z,-1.44
2018-12-22T02:57:39.664Z,-1.48
2018-12-22T03:00:12.873Z,-1.43
2018-12-22T03:02:47.056Z,-1.42
2018-12-22T03:05:19.937Z,-1.40
2018-12-22T03:07:54.416Z,-1.42
2018-12-22T03:10:27.301Z,-1.48
2018-12-22T03:13:00.545Z,-1.42
2018-12-22T03:15:34.652Z,-1.44
2018-12-22T03:18:07.346Z,-1.38
2018-12-22T03:20:39.679Z,-1.37
2018-12-22T03:23:12.205Z,-1.38
2018-12-22T03:25:45.043Z,-1.40
2018-12-22T03:28:23.541Z,-1.33
2018-12-22T03:30:57.269Z,-1.32
2018-12-22T03:33:30.577Z,-1.25
2018-12-22T03:36:03.381Z,-1.23
2018-12-22T03:38:36.269Z,-1.20
2018-12-22T03:41:11.382Z,-1.18
2018-12-22T03:43:45.476Z,-1.18
2018-12-22T03:46:18.852Z,-1.21
2018-12-22T03:48:51.899Z,-1.14
2018-12-22T03:51:28.445Z,-1.14
2018-12-22T03:54:01.470Z,-1.11
2018-12-22T03:56:34.703Z,-1.03
2018-12-22T03:59:12.995Z,-0.98
2018-12-22T04:01:43.720Z,-0.94
2018-12-22T04:04:16.860Z,-0.92
2018-12-22T04:06:49.807Z,-0.83
2018-12-22T04:09:23.099Z,-0.86
2018-12-22T04:12:00.613Z,-0.81
2018-12-22T04:14:33.461Z,-0.94
2018-12-22T04:17:06.578Z,-0.87
2018-12-22T04:19:40.124Z,-0.89
2018-12-22T04:22:12.697Z,-0.82
2018-12-22T04:24:48.984Z,-0.88
2018-12-22T04:27:22.357Z,-0.82
2018-12-22T04:29:55.552Z,-0.74
2018-12-22T04:32:28.992Z,-0.74
2018-12-22T04:35:01.357Z,-0.76
2018-12-22T04:37:33.965Z,-0.74
2018-12-22T04:40:10.714Z,-0.74
2018-12-22T04:42:41.902Z,-0.81
2018-12-22T04:45:15.925Z,-0.84
2018-12-22T04:47:54.442Z,-0.70
2018-12-22T04:50:28.732Z,-0.74
2018-12-22T04:53:06.319Z,-0.70
2018-12-22T04:55:41.001Z,-0.66
2018-12-22T04:58:15.012Z,-0.61
2018-12-22T05:00:48.420Z,-0.62
2018-12-22T05:03:21.383Z,-0.62
2018-12-22T05:05:53.636Z,-0.59
2018-12-22T05:08:26.624Z,-0.58
2018-12-22T05:11:05.168Z,-0.67
2018-12-22T05:13:37.727Z,-0.63
2018-12-22T05:16:14.908Z,-0.69
2018-12-22T05:18:48.305Z,-0.74
2018-12-22T05:21:21.036Z,-0.71
2018-12-22T05:23:58.332Z,-0.73
2018-12-22T05:26:34.968Z,-0.80
2018-12-22T05:29:11.547Z,-0.84
2018-12-22T05:31:44.131Z,-0.85
2018-12-22T05:34:17.545Z,-0.79
2018-12-22T05:36:54.190Z,-0.89
2018-12-22T05:39:27.506Z,-0.90
2018-12-22T05:42:00.327Z,-0.93
2018-12-22T05:44:37.136Z,-0.96
2018-12-22T05:47:14.409Z,-0.90
2018-12-22T05:49:47.890Z,-0.95
2018-12-22T05:52:24.916Z,-0.91
2018-12-22T05:55:02.072Z,-1.01
2018-12-22T05:57:40.846Z,-1.07
2018-12-22T06:00:17.467Z,-1.19
2018-12-22T06:02:50.634Z,-1.12
2018-12-22T06:05:23.745Z,-1.11
2018-12-22T06:08:00.067Z,-1.12
2018-12-22T06:10:33.262Z,-1.14
2018-12-22T06:13:06.425Z,-1.17
2018-12-22T06:15:39.813Z,-1.24
2018-12-22T06:18:12.475Z,-1.25
2018-12-22T06:20:47.242Z,-1.25
2018-12-22T06:23:19.872Z,-1.33
2018-12-22T06:25:53.854Z,-1.36
2018-12-22T06:28:27.273Z,-1.43
2018-12-22T06:31:00.087Z,-1.40
2018-12-22T06:33:33.159Z,-1.34
2018-12-22T06:36:10.223Z,-1.49
2018-12-22T06:38:42.361Z,-1.48
2018-12-22T06:41:18.767Z,-1.50
2018-12-22T06:43:55.945Z,-1.51
2018-12-22T06:46:32.962Z,-1.48
2018-12-22T06:49:09.010Z,-1.54
2018-12-22T06:51:41.189Z,-1.64
2018-12-22T06:54:14.262Z,-1.54
2018-12-22T06:56:47.485Z,-1.51
2018-12-22T06:59:23.875Z,-1.44
2018-12-22T07:01:57.259Z,-1.39
2018-12-22T07:04:30.029Z,-1.41
2018-12-22T07:07:02.809Z,-1.36
2018-12-22T07:09:35.372Z,-1.35
2018-12-22T07:12:08.142Z,-1.32
2018-12-22T07:14:45.782Z,-1.48
2018-12-22T07:17:18.524Z,-1.47
2018-12-22T07:19:51.055Z,-1.39
2018-12-22T07:22:24.221Z,-1.29
2018-12-22T07:24:57.205Z,-1.21
2018-12-22T07:27:33.609Z,-1.15
2018-12-22T07:30:08.975Z,-1.03
2018-12-22T07:32:41.951Z,-0.99
2018-12-22T07:35:18.206Z,-0.92
2018-12-22T07:37:53.166Z,-0.89
2018-12-22T07:40:29.605Z,-0.74
2018-12-22T07:43:06.660Z,-0.55
2018-12-22T07:45:44.086Z,-0.38
2018-12-22T07:48:16.975Z,-0.14
2018-12-22T07:50:50.154Z,-0.35
2018-12-22T07:53:21.638Z,-0.23
2018-12-22T07:55:55.088Z,-0.09
2018-12-22T07:58:28.635Z,-0.06
2018-12-22T08:01:05.116Z,-0.01
2018-12-22T08:03:35.993Z,-0.23
2018-12-22T08:06:08.992Z,-0.04
2018-12-22T08:08:40.550Z,-0.01
2018-12-22T08:31:23.560Z,1.17
2018-12-22T08:33:56.648Z,1.26
2018-12-22T08:36:31.429Z,1.43
2018-12-22T08:39:08.995Z,1.62
2018-12-22T08:41:43.013Z,1.72
2018-12-22T08:44:16.472Z,1.98
2018-12-22T08:46:53.551Z,2.33
2018-12-22T08:49:27.257Z,2.42
2018-12-22T08:51:58.751Z,2.83
2018-12-22T08:54:32.791Z,3.17
2018-12-22T08:57:09.834Z,3.47
2018-12-22T08:59:46.879Z,3.61
2018-12-22T09:02:20.056Z,3.68
2018-12-22T09:04:53.352Z,3.50
2018-12-22T09:07:26.173Z,3.65
2018-12-22T09:09:58.728Z,4.17
2018-12-22T09:12:31.722Z,3.65
2018-12-22T09:15:05.051Z,4.25
2018-12-22T09:17:42.330Z,4.74
2018-12-22T09:20:20.822Z,5.02
2018-12-22T09:22:53.156Z,5.10
2018-12-22T09:25:26.145Z,4.79
2018-12-22T09:27:59.113Z,4.67
2018-12-22T09:43:08.928Z,4.02
2018-12-22T09:45:42.890Z,4.09
2018-12-22T09:48:19.449Z,4.03
2018-12-22T09:50:53.476Z,4.22
2018-12-22T09:53:24.297Z,3.92
2018-12-22T09:56:00.917Z,4.13
2018-12-22T09:58:34.328Z,4.51
2018-12-22T10:01:09.467Z,4.49
2018-12-22T10:03:42.139Z,4.58
2018-12-22T10:06:14.628Z,5.00
2018-12-22T10:08:45.692Z,4.82
2018-12-22T10:11:19.487Z,4.92
2018-12-22T10:13:52.036Z,5.04
2018-12-22T10:16:28.387Z,5.03
2018-12-22T10:18:58.600Z,5.04
2018-12-22T10:21:31.721Z,5.14
2018-12-22T10:24:08.006Z,5.30
2018-12-22T10:26:41.301Z,5.21
2018-12-22T10:29:12.238Z,5.27
2018-12-22T10:31:43.201Z,5.44
2018-12-22T10:34:16.390Z,5.65
2018-12-22T10:36:48.761Z,5.62
2018-12-22T10:39:22.035Z,5.94
2018-12-22T10:41:53.137Z,6.08
2018-12-22T10:44:30.294Z,6.09
2018-12-22T10:47:03.390Z,6.11
2018-12-22T10:49:39.891Z,6.00
2018-12-22T10:52:12.854Z,6.25
2018-12-22T10:54:45.711Z,6.36
2018-12-22T10:57:18.855Z,6.14
2018-12-22T10:59:51.122Z,6.08
2018-12-22T11:02:23.809Z,6.06
2018-12-22T11:04:56.542Z,6.30
2018-12-22T11:07:28.687Z,6.26
2018-12-22T11:10:01.642Z,6.38
2018-12-22T11:12:38.034Z,6.36
2018-12-22T11:15:15.339Z,6.45
2018-12-22T11:17:51.954Z,6.56
2018-12-22T11:20:22.479Z,7.05
2018-12-22T11:22:55.648Z,7.45
2018-12-22T11:25:29.199Z,7.28
2018-12-22T11:28:02.715Z,7.32
2018-12-22T11:30:41.976Z,7.72
2018-12-22T11:33:14.676Z,8.03
2018-12-22T11:35:52.516Z,7.90
2018-12-22T11:38:25.351Z,8.29
2018-12-22T11:40:58.428Z,8.07
2018-12-22T11:43:37.006Z,7.99
2018-12-22T11:49:49.336Z,8.33
2018-12-22T11:52:20.309Z,8.62
2018-12-22T11:54:53.997Z,8.82
2018-12-22T11:57:27.055Z,8.94
2018-12-22T12:00:00.360Z,8.83
2018-12-22T12:02:33.620Z,8.34
2018-12-22T12:05:11.792Z,8.52
2018-12-22T12:07:44.431Z,8.65
2018-12-22T12:10:17.581Z,8.80
2018-12-22T12:12:54.965Z,8.99
2018-12-22T12:15:45.220Z,8.43
2018-12-22T12:19:32.366Z,8.22
2018-12-22T12:22:05.072Z,8.62
2018-12-22T12:24:42.760Z,9.05
2018-12-22T12:27:20.163Z,9.39
2018-12-22T12:29:53.174Z,9.81
2018-12-22T12:32:29.979Z,10.12
2018-12-22T12:35:09.815Z,10.31
2018-12-22T12:37:43.630Z,10.64
2018-12-22T12:40:16.069Z,10.54
2018-12-22T12:42:47.438Z,10.90
2018-12-22T12:45:20.613Z,11.03
2018-12-22T12:47:53.611Z,11.11
2018-12-22T12:50:26.423Z,11.02
2018-12-22T12:52:59.493Z,10.99
2018-12-22T12:55:36.054Z,11.32
2018-12-22T12:58:09.409Z,11.59
2018-12-22T13:00:42.757Z,11.12
2018-12-22T13:03:15.919Z,10.29
2018-12-22T13:05:48.413Z,9.67
2018-12-22T13:08:22.558Z,9.32
2018-12-22T13:10:55.475Z,9.76
2018-12-22T13:13:52.644Z,10.63
2018-12-22T13:16:26.295Z,10.88
2018-12-22T13:18:57.446Z,11.11
2018-12-22T13:21:30.278Z,11.12
2018-12-22T13:24:03.470Z,11.40
2018-12-22T13:26:37.195Z,11.24
2018-12-22T13:29:10.801Z,11.15
2018-12-22T13:31:44.781Z,11.14
2018-12-22T13:34:18.487Z,10.96
2018-12-22T13:36:49.481Z,10.93
2018-12-22T13:39:26.635Z,10.48
2018-12-22T13:42:02.376Z,10.59
2018-12-22T13:44:36.126Z,10.43
2018-12-22T13:47:09.250Z,10.26
2018-12-22T13:49:41.960Z,10.24
2018-12-22T13:52:14.155Z,10.33
2018-12-22T13:54:47.446Z,10.32
2018-12-22T13:57:24.022Z,10.24
2018-12-22T13:59:59.431Z,10.06
2018-12-22T14:02:36.499Z,10.08
2018-12-22T14:05:19.054Z,10.08
2018-12-22T14:07:56.679Z,9.81
2018-12-22T14:10:34.089Z,9.61
2018-12-22T14:13:06.801Z,9.40
2018-12-22T14:15:52.609Z,9.13
2018-12-22T14:18:54.776Z,9.25
2018-12-22T14:21:26.483Z,9.33
2018-12-22T14:24:18.037Z,9.09
2018-12-22T14:26:51.300Z,8.51
2018-12-22T14:29:24.006Z,8.23
2018-12-22T14:32:00.875Z,8.33
2018-12-22T14:36:44.430Z,8.06
2018-12-22T14:39:17.571Z,7.27
2018-12-22T14:41:50.681Z,7.24
2018-12-22T14:44:24.485Z,7.00
2018-12-22T14:46:54.800Z,6.57
2018-12-22T14:49:27.441Z,6.56
2018-12-22T14:52:00.546Z,6.58
2018-12-22T14:54:37.396Z,6.38
2018-12-22T14:57:11.963Z,6.28
2018-12-22T14:59:45.783Z,6.08
2018-12-22T15:02:18.738Z,6.05
2018-12-22T15:04:51.454Z,5.86
2018-12-22T15:07:23.506Z,5.72
2018-12-22T15:09:57.936Z,5.53
2018-12-22T15:12:28.955Z,5.32
2018-12-22T15:15:01.941Z,5.13
2018-12-22T15:17:35.095Z,5.13
2018-12-22T15:20:13.395Z,5.00
2018-12-22T15:22:46.349Z,5.01
2018-12-22T15:25:19.850Z,4.88
2018-12-22T15:27:52.835Z,4.80
2018-12-22T15:30:25.775Z,4.58
2018-12-22T15:33:02.086Z,4.51
2018-12-22T15:35:34.376Z,4.39
2018-12-22T15:38:08.718Z,3.93
2018-12-22T15:40:43.355Z,3.99
2018-12-22T15:43:16.941Z,3.90
2018-12-22T15:45:49.449Z,3.78
2018-12-22T15:48:22.544Z,3.77
2018-12-22T15:50:55.732Z,3.56
2018-12-22T15:53:30.780Z,3.45
2018-12-22T15:56:03.881Z,3.45
2018-12-22T15:58:36.572Z,3.24
2018-12-22T16:01:07.645Z,3.04
2018-12-22T16:03:45.780Z,3.15
2018-12-22T16:06:27.312Z,2.97
2018-12-22T16:09:06.612Z,2.84
2018-12-22T16:11:39.426Z,2.84
2018-12-22T16:14:12.531Z,2.84
2018-12-22T16:16:54.531Z,2.83
2018-12-22T16:19:28.067Z,2.65
2018-12-22T16:22:00.979Z,2.44
2018-12-22T16:24:37.406Z,2.46
2018-12-22T16:27:10.873Z,2.53
2018-12-22T16:29:45.639Z,2.49
2018-12-22T16:32:19.587Z,2.44
2018-12-22T16:34:52.679Z,2.45
2018-12-22T16:37:29.026Z,2.48
2018-12-22T16:40:02.196Z,2.44
2018-12-22T16:42:34.443Z,2.17
2018-12-22T16:45:10.731Z,2.11
2018-12-22T16:47:47.395Z,2.00
2018-12-22T16:50:20.133Z,1.98
2018-12-22T16:52:54.180Z,2.06
2018-12-22T16:55:27.999Z,2.07
2018-12-22T16:58:06.701Z,2.09
2018-12-22T17:00:50.768Z,2.02
2018-12-22T17:03:23.390Z,1.94
2018-12-22T17:16:03.172Z,1.62
2018-12-22T17:18:33.561Z,1.50
2018-12-22T17:21:33.925Z,1.65
2018-12-22T17:24:18.517Z,1.76
2018-12-22T17:26:50.659Z,1.57
2018-12-22T17:29:23.454Z,1.69
2018-12-22T17:31:57.248Z,1.74
2018-12-22T17:34:29.661Z,1.83
2018-12-22T17:37:02.616Z,1.87
2018-12-22T17:39:36.796Z,1.89
2018-12-22T17:42:10.209Z,1.88
2018-12-22T17:44:43.477Z,1.88
2018-12-22T17:47:16.203Z,1.88
2018-12-22T17:49:49.285Z,1.97
2018-12-22T17:52:22.051Z,1.92
2018-12-22T17:54:53.334Z,2.00
2018-12-22T17:57:26.733Z,2.20
2018-12-22T17:59:59.869Z,2.51
2018-12-22T18:02:36.069Z,2.94
2018-12-22T18:05:10.456Z,3.23
2018-12-22T18:07:43.182Z,3.61
2018-12-22T18:10:14.426Z,3.94
2018-12-22T18:12:47.702Z,4.18
2018-12-22T18:15:22.802Z,4.39
2018-12-22T18:17:55.043Z,4.57
2018-12-22T18:20:28.036Z,4.75
2018-12-22T18:23:01.249Z,4.93
2018-12-22T18:25:34.378Z,5.04
2018-12-22T18:28:06.661Z,5.16
2018-12-22T18:30:39.429Z,5.31
2018-12-22T18:33:11.819Z,5.36
2018-12-22T18:35:44.434Z,5.48
2018-12-22T18:38:17.158Z,5.55
2018-12-22T18:40:49.364Z,5.63
2018-12-22T18:43:22.360Z,5.66
2018-12-22T18:45:55.408Z,5.76
2018-12-22T18:48:32.335Z,5.82
2018-12-22T18:51:06.057Z,5.86
2018-12-22T18:53:39.905Z,5.88
2018-12-22T18:56:16.173Z,5.86
2018-12-22T18:58:54.143Z,5.77
2018-12-22T19:01:27.500Z,5.60
2018-12-22T19:04:04.697Z,5.56
2018-12-22T19:06:36.956Z,5.58
2018-12-22T19:09:15.675Z,5.48
2018-12-22T19:11:48.717Z,5.46
2018-12-22T19:14:25.008Z,5.44
2018-12-22T19:17:01.294Z,5.44
2018-12-22T19:19:34.499Z,5.37
2018-12-22T19:22:07.459Z,5.40
2018-12-22T19:24:38.602Z,5.42
2018-12-22T19:27:16.623Z,5.45
2018-12-22T19:29:48.843Z,5.46
2018-12-22T19:32:21.959Z,5.42
2018-12-22T19:34:55.481Z,5.38
2018-12-22T19:37:28.369Z,5.34
2018-12-22T19:40:02.320Z,5.28
2018-12-22T19:42:34.939Z,5.26
2018-12-22T19:45:08.747Z,5.24
2018-12-22T19:47:45.068Z,5.18
2018-12-22T19:50:18.666Z,5.12
2018-12-22T19:52:49.769Z,5.05
2018-12-22T19:55:22.827Z,5.00
2018-12-22T19:57:54.971Z,4.92
2018-12-22T20:00:29.179Z,4.90
2018-12-22T20:03:02.092Z,4.89
2018-12-22T20:05:34.299Z,4.95
2018-12-22T20:08:06.532Z,4.97
2018-12-22T20:10:38.716Z,5.05
2018-12-22T20:13:11.190Z,5.17
2018-12-22T20:15:44.305Z,5.29
2018-12-22T20:18:16.584Z,5.51
2018-12-22T20:20:49.974Z,5.74
2018-12-22T20:23:22.835Z,5.98
2018-12-22T20:25:55.351Z,6.15
2018-12-22T20:28:29.566Z,6.42
2018-12-22T20:31:05.781Z,6.90
2018-12-22T20:33:38.721Z,7.04
2018-12-22T20:36:16.076Z,7.12
2018-12-22T20:38:48.572Z,7.32
2018-12-22T20:41:19.560Z,7.44
2018-12-22T20:43:52.532Z,7.47
2018-12-22T20:46:22.699Z,7.51
2018-12-22T20:48:54.929Z,7.44
2018-12-22T20:51:32.868Z,7.46
2018-12-22T20:54:09.122Z,7.34
2018-12-22T20:56:42.423Z,7.22
2018-12-22T20:59:15.432Z,7.15
2018-12-22T21:01:51.742Z,7.08
2018-12-22T21:04:28.035Z,6.93
2018-12-22T21:07:01.045Z,6.71
2018-12-22T21:09:32.304Z,6.51
2018-12-22T21:12:05.047Z,6.50
2018-12-22T21:14:35.438Z,6.39
2018-12-22T21:17:06.550Z,5.82
2018-12-22T21:19:39.538Z,5.50
2018-12-22T21:22:13.478Z,5.12
2018-12-22T21:24:45.914Z,4.77
2018-12-22T21:27:23.174Z,4.47
2018-12-22T21:29:53.482Z,4.39
2018-12-22T21:32:30.941Z,4.26
2018-12-22T21:35:04.216Z,4.09
2018-12-22T21:37:37.168Z,3.99
2018-12-22T21:40:10.202Z,3.86
2018-12-22T21:42:43.498Z,3.72
2018-12-22T21:45:16.575Z,3.60
2018-12-22T21:47:49.661Z,3.59
2018-12-22T21:50:22.893Z,3.57
2018-12-22T21:52:56.192Z,3.52
2018-12-22T21:55:28.979Z,3.35
2018-12-22T21:58:01.976Z,3.31
2018-12-22T22:00:38.198Z,3.13
2018-12-22T22:03:15.149Z,3.12
2018-12-22T22:05:46.372Z,2.93
2018-12-22T22:08:22.827Z,2.94
2018-12-22T22:10:54.100Z,2.84
2018-12-22T22:13:27.385Z,2.81
2018-12-22T22:16:00.654Z,2.69
2018-12-22T22:18:31.560Z,2.65
2018-12-22T22:21:08.458Z,2.66
2018-12-22T22:23:41.024Z,2.57
2018-12-22T22:26:17.482Z,2.56
2018-12-22T22:28:50.685Z,2.39
2018-12-22T22:31:23.757Z,2.31
2018-12-22T22:33:56.781Z,2.22
2018-12-22T22:36:29.817Z,2.16
2018-12-22T22:39:04.309Z,2.18
2018-12-22T22:41:40.716Z,2.16
2018-12-22T22:44:13.744Z,2.14
2018-12-22T22:46:46.692Z,2.13
2018-12-22T22:49:20.026Z,2.06
2018-12-22T22:51:56.442Z,2.03
2018-12-22T22:54:28.667Z,1.97
2018-12-22T22:57:04.925Z,1.99
2018-12-22T22:59:41.480Z,2.03
2018-12-22T23:02:14.305Z,2.05
2018-12-22T23:04:54.428Z,1.94
2018-12-22T23:07:27.744Z,1.90
2018-12-22T23:10:00.385Z,1.81
2018-12-22T23:12:33.481Z,1.84
2018-12-22T23:15:11.665Z,1.84
2018-12-22T23:17:43.410Z,1.88
2018-12-22T23:20:16.021Z,2.10
2018-12-22T23:22:49.443Z,2.37
2018-12-22T23:25:27.120Z,2.52
2018-12-22T23:43:03.665Z,2.27
2018-12-22T23:45:36.180Z,1.89
2018-12-22T23:48:13.295Z,1.69
2018-12-22T23:50:46.427Z,1.60
2018-12-22T23:53:19.638Z,1.50
2018-12-22T23:55:52.833Z,1.49
2018-12-22T23:58:25.810Z,1.52
